createdAt,value
2023-03-21T03:15:28.470Z,8.39
2023-03-21T03:16:30.326Z,8.40
2023-03-21T03:17:32.124Z,8.40
2023-03-21T03:18:33.927Z,8.40
2023-03-21T03:19:44.647Z,8.39
2023-03-21T03:20:39.786Z,8.37
2023-03-21T03:21:41.863Z,8.36
2023-03-21T03:22:43.684Z,8.36
2023-03-21T03:23:45.483Z,8.35
2023-03-21T03:24:47.329Z,8.34
2023-03-21T03:25:49.046Z,8.34
2023-03-21T03:26:50.851Z,8.32
2023-03-21T03:27:52.585Z,8.31
2023-03-21T03:28:54.411Z,8.30
2023-03-21T03:29:56.265Z,8.29
2023-03-21T03:31:08.612Z,8.28
2023-03-21T03:32:01.765Z,8.27
2023-03-21T03:33:03.758Z,8.26
2023-03-21T03:34:05.557Z,8.25
2023-03-21T03:35:07.517Z,8.26
2023-03-21T03:36:12.607Z,8.25
2023-03-21T03:37:13.064Z,8.25
2023-03-21T03:38:14.883Z,8.27
2023-03-21T03:39:16.697Z,8.25
2023-03-21T03:40:18.540Z,8.25
2023-03-21T03:41:20.354Z,8.23
2023-03-21T03:42:28.572Z,8.23
2023-03-21T03:43:25.786Z,8.21
2023-03-21T03:44:27.589Z,8.22
2023-03-21T03:45:29.444Z,8.23
2023-03-21T03:46:31.332Z,8.22
2023-03-21T03:47:37.812Z,8.23
2023-03-21T03:48:36.807Z,8.26
2023-03-21T03:49:38.576Z,8.27
2023-03-21T03:50:40.434Z,8.27
2023-03-21T03:51:42.252Z,8.26
2023-03-21T03:52:55.251Z,8.26
2023-03-21T03:53:47.710Z,8.26
2023-03-21T03:54:49.516Z,8.25
2023-03-21T03:55:51.351Z,8.25
2023-03-21T03:56:53.172Z,8.24
2023-03-21T03:57:54.941Z,8.25
2023-03-21T03:58:56.745Z,8.25
2023-03-21T03:59:58.549Z,8.26
2023-03-21T04:01:00.383Z,8.27
2023-03-21T04:02:02.204Z,8.29
2023-03-21T04:03:04.121Z,8.30
2023-03-21T04:04:12.968Z,8.30
2023-03-21T04:05:09.605Z,8.31
2023-03-21T04:06:11.453Z,8.33
2023-03-21T04:07:13.256Z,8.34
2023-03-21T04:08:15.057Z,8.36
2023-03-21T04:09:21.032Z,8.36
2023-03-21T04:10:20.579Z,8.36
2023-03-21T04:11:22.413Z,8.38
2023-03-21T04:12:24.199Z,8.39
2023-03-21T04:13:26.007Z,8.40
2023-03-21T04:14:35.552Z,8.41
2023-03-21T04:15:31.434Z,8.44
2023-03-21T04:16:35.667Z,8.47
2023-03-21T04:17:36.886Z,8.49
2023-03-21T04:18:38.681Z,8.51
2023-03-21T04:19:40.479Z,8.54
2023-03-21T04:20:42.285Z,8.56
2023-03-21T04:21:44.128Z,8.58
2023-03-21T04:22:45.929Z,8.60
2023-03-21T04:23:47.728Z,8.62
2023-03-21T04:24:49.549Z,8.63
2023-03-21T04:25:56.656Z,8.67
2023-03-21T04:26:55.043Z,8.69
2023-03-21T04:27:56.856Z,8.72
2023-03-21T04:28:58.666Z,8.75
2023-03-21T04:30:00.463Z,8.79
2023-03-21T04:31:16.006Z,8.81
2023-03-21T04:32:05.951Z,8.84
2023-03-21T04:33:07.747Z,8.87
2023-03-21T04:34:09.533Z,8.89
2023-03-21T04:35:11.358Z,8.93
2023-03-21T04:36:13.484Z,8.96
2023-03-21T04:37:15.292Z,9.00
2023-03-21T04:38:17.096Z,9.02
2023-03-21T04:39:18.898Z,9.04
2023-03-21T04:40:20.699Z,9.06
2023-03-21T04:41:22.512Z,9.07
2023-03-21T04:42:24.496Z,9.09
2023-03-21T04:43:26.313Z,9.11
2023-03-21T04:44:28.113Z,9.13
2023-03-21T04:45:29.942Z,9.15
2023-03-21T04:46:31.733Z,9.18
2023-03-21T04:47:33.702Z,9.21
2023-03-21T04:48:35.508Z,9.26
2023-03-21T04:49:37.319Z,9.29
2023-03-21T04:50:39.410Z,9.33
2023-03-21T04:51:41.387Z,9.35
2023-03-21T04:52:43.259Z,9.37
2023-03-21T04:53:45.078Z,9.40
2023-03-21T04:54:46.878Z,9.43
2023-03-21T04:55:52.393Z,9.46
2023-03-21T04:56:52.316Z,9.47
2023-03-21T04:57:54.177Z,9.50
2023-03-21T04:58:56.066Z,9.53
2023-03-21T04:59:57.861Z,9.56
2023-03-21T05:00:59.673Z,9.60
2023-03-21T05:02:01.458Z,9.62
2023-03-21T05:03:03.313Z,9.65
2023-03-21T05:04:05.180Z,9.70
2023-03-21T05:05:06.950Z,9.74
2023-03-21T05:06:09.101Z,9.77
2023-03-21T05:07:10.944Z,9.81
2023-03-21T05:08:12.762Z,9.84
2023-03-21T05:09:14.585Z,9.87
2023-03-21T05:10:16.695Z,9.90
2023-03-21T05:11:18.501Z,9.92
2023-03-21T05:12:20.299Z,9.96
2023-03-21T05:13:22.152Z,9.97
2023-03-21T05:14:24.014Z,10.00
2023-03-21T05:15:25.776Z,10.03
2023-03-21T05:16:27.607Z,10.06
2023-03-21T05:17:29.389Z,10.09
2023-03-21T05:18:31.259Z,10.14
2023-03-21T05:19:33.098Z,10.18
2023-03-21T05:20:34.918Z,10.22
2023-03-21T05:21:36.723Z,10.25
2023-03-21T05:22:38.518Z,10.27
2023-03-21T05:23:40.390Z,10.31
2023-03-21T05:24:42.302Z,10.33
2023-03-21T05:25:44.197Z,10.36
2023-03-21T05:26:46.106Z,10.37
2023-03-21T05:27:47.947Z,10.38
2023-03-21T05:28:49.770Z,10.40
2023-03-21T05:29:51.613Z,10.39
2023-03-21T05:30:53.452Z,10.42
2023-03-21T05:31:55.332Z,10.44
2023-03-21T05:32:57.124Z,10.47
2023-03-21T05:33:58.954Z,10.51
2023-03-21T05:35:00.752Z,10.55
2023-03-21T05:36:02.625Z,10.59
2023-03-21T05:37:04.375Z,10.62
2023-03-21T05:38:06.171Z,10.65
2023-03-21T05:39:08.009Z,10.68
2023-03-21T05:40:09.896Z,10.70
2023-03-21T05:41:11.710Z,10.73
2023-03-21T05:42:13.522Z,10.78
2023-03-21T05:43:15.325Z,10.80
2023-03-21T05:44:17.194Z,10.85
2023-03-21T05:45:19.005Z,10.88
2023-03-21T05:46:20.855Z,10.90
2023-03-21T05:47:22.665Z,10.92
2023-03-21T05:48:24.475Z,10.94
2023-03-21T05:49:26.294Z,10.95
2023-03-21T05:50:28.122Z,10.98
2023-03-21T05:51:29.920Z,11.00
2023-03-21T05:52:31.716Z,11.03
2023-03-21T05:53:33.529Z,11.04
2023-03-21T05:54:35.397Z,11.05
2023-03-21T05:55:37.498Z,11.08
2023-03-21T05:56:39.417Z,11.10
2023-03-21T05:57:41.231Z,11.13
2023-03-21T05:58:43.045Z,11.14
2023-03-21T05:59:44.892Z,11.17
2023-03-21T06:00:46.694Z,11.18
2023-03-21T06:01:48.502Z,11.18
2023-03-21T06:02:50.391Z,11.20
2023-03-21T06:03:52.355Z,11.21
2023-03-21T06:04:54.216Z,11.20
2023-03-21T06:05:56.004Z,11.21
2023-03-21T06:06:57.809Z,11.23
2023-03-21T06:07:59.628Z,11.25
2023-03-21T06:09:01.425Z,11.25
2023-03-21T06:10:03.314Z,11.27
2023-03-21T06:11:05.128Z,11.26
2023-03-21T06:12:06.996Z,11.27
2023-03-21T06:13:08.793Z,11.28
2023-03-21T06:14:10.598Z,11.31
2023-03-21T06:15:12.532Z,11.33
2023-03-21T06:16:14.746Z,11.35
2023-03-21T06:17:16.623Z,11.38
2023-03-21T06:18:18.397Z,11.38
2023-03-21T06:19:20.210Z,11.40
2023-03-21T06:20:22.059Z,11.41
2023-03-21T06:21:25.772Z,11.42
2023-03-21T06:22:27.537Z,11.45
2023-03-21T06:23:29.352Z,11.47
2023-03-21T06:24:31.184Z,11.48
2023-03-21T06:25:33.034Z,11.50
2023-03-21T06:26:34.847Z,11.51
2023-03-21T06:27:36.652Z,11.51
2023-03-21T06:28:38.450Z,11.53
2023-03-21T06:29:40.299Z,11.55
2023-03-21T06:30:42.188Z,11.58
2023-03-21T06:31:44.053Z,11.60
2023-03-21T06:32:45.817Z,11.64
2023-03-21T06:33:47.629Z,11.66
2023-03-21T06:34:49.475Z,11.68
2023-03-21T06:35:51.355Z,11.72
2023-03-21T06:36:53.202Z,11.74
2023-03-21T06:37:55.012Z,11.78
2023-03-21T06:38:56.833Z,11.82
2023-03-21T06:39:58.633Z,11.85
2023-03-21T06:41:00.520Z,11.88
2023-03-21T06:42:02.365Z,11.93
2023-03-21T06:43:04.183Z,11.98
2023-03-21T06:44:06.049Z,12.01
2023-03-21T06:45:07.858Z,12.05
2023-03-21T06:46:09.889Z,12.10
2023-03-21T06:47:11.686Z,12.16
2023-03-21T06:48:13.568Z,12.20
2023-03-21T06:49:15.319Z,12.23
2023-03-21T06:50:17.116Z,12.28
2023-03-21T06:51:18.981Z,12.32
2023-03-21T06:52:20.810Z,12.35
2023-03-21T06:53:22.609Z,12.39
2023-03-21T06:54:24.410Z,12.41
2023-03-21T06:55:26.241Z,12.46
2023-03-21T06:56:28.136Z,12.50
2023-03-21T06:57:29.947Z,12.53
2023-03-21T06:58:31.771Z,12.56
2023-03-21T06:59:33.574Z,12.59
2023-03-21T07:00:35.397Z,12.65
2023-03-21T07:01:37.369Z,12.68
2023-03-21T07:02:39.221Z,12.72
2023-03-21T07:03:40.981Z,12.75
2023-03-21T07:04:42.908Z,12.80
2023-03-21T07:05:44.790Z,12.84
2023-03-21T07:06:46.876Z,12.88
2023-03-21T07:07:48.696Z,12.93
2023-03-21T07:08:50.515Z,12.97
2023-03-21T07:09:52.363Z,13.01
2023-03-21T07:10:54.176Z,13.05
2023-03-21T07:11:56.063Z,13.06
2023-03-21T07:12:57.898Z,13.09
2023-03-21T07:13:59.708Z,13.11
2023-03-21T07:15:01.576Z,13.15
2023-03-21T07:16:03.440Z,13.20
2023-03-21T07:17:05.318Z,13.23
2023-03-21T07:18:07.215Z,13.30
2023-03-21T07:19:09.034Z,13.30
2023-03-21T07:20:10.968Z,13.31
2023-03-21T07:21:12.790Z,13.32
2023-03-21T07:22:14.649Z,13.34
2023-03-21T07:23:16.469Z,13.37
2023-03-21T07:24:18.283Z,13.41
2023-03-21T07:25:20.248Z,13.43
2023-03-21T07:26:22.177Z,13.47
2023-03-21T07:27:24.033Z,13.49
2023-03-21T07:28:25.875Z,13.52
2023-03-21T07:29:27.680Z,13.53
2023-03-21T07:30:29.557Z,13.56
2023-03-21T07:31:31.390Z,13.58
2023-03-21T07:32:33.350Z,13.61
2023-03-21T07:33:35.172Z,13.63
2023-03-21T07:34:37.110Z,13.65
2023-03-21T07:35:39.214Z,13.67
2023-03-21T07:36:41.274Z,13.68
2023-03-21T07:37:44.284Z,13.70
2023-03-21T07:38:46.102Z,13.72
2023-03-21T07:39:48.000Z,13.73
2023-03-21T07:40:49.942Z,13.74
2023-03-21T07:41:51.753Z,13.76
2023-03-21T07:42:53.634Z,13.76
2023-03-21T07:43:55.421Z,13.76
2023-03-21T07:44:57.233Z,13.77
2023-03-21T07:46:00.886Z,13.78
2023-03-21T07:47:02.809Z,13.79
2023-03-21T07:48:04.687Z,13.79
2023-03-21T07:49:06.478Z,13.79
2023-03-21T07:50:08.342Z,13.81
2023-03-21T07:51:10.137Z,13.80
2023-03-21T07:52:11.932Z,13.81
2023-03-21T07:53:13.797Z,13.82
2023-03-21T07:54:15.601Z,13.81
2023-03-21T07:55:17.479Z,13.83
2023-03-21T07:56:19.318Z,13.85
2023-03-21T07:57:21.271Z,13.85
2023-03-21T07:58:23.065Z,13.86
2023-03-21T07:59:24.868Z,13.87
2023-03-21T08:00:26.666Z,13.87
2023-03-21T08:01:28.469Z,13.89
2023-03-21T08:02:30.320Z,13.89
2023-03-21T08:03:32.151Z,13.89
2023-03-21T08:04:36.840Z,13.90
2023-03-21T08:05:39.085Z,13.92
2023-03-21T08:06:41.117Z,13.94
2023-03-21T08:07:42.910Z,13.96
2023-03-21T08:08:44.777Z,13.98
2023-03-21T08:09:46.598Z,13.98
2023-03-21T08:10:48.555Z,13.98
2023-03-21T08:11:50.355Z,13.98
2023-03-21T08:12:52.217Z,13.98
2023-03-21T08:13:54.100Z,14.00
2023-03-21T08:14:55.902Z,14.02
2023-03-21T08:15:57.730Z,14.03
2023-03-21T08:16:59.627Z,14.05
2023-03-21T08:18:01.521Z,14.04
2023-03-21T08:19:03.413Z,14.05
2023-03-21T08:20:05.272Z,14.07
2023-03-21T08:21:09.351Z,14.08
2023-03-21T08:22:10.780Z,14.10
2023-03-21T08:23:12.557Z,14.12
2023-03-21T08:24:14.452Z,14.12
2023-03-21T08:25:16.361Z,14.12
2023-03-21T08:26:18.286Z,14.14
2023-03-21T08:27:20.108Z,14.16
2023-03-21T08:28:21.956Z,14.22
2023-03-21T08:29:23.934Z,14.22
2023-03-21T08:30:25.756Z,14.24
2023-03-21T08:31:27.611Z,14.27
2023-03-21T08:32:29.437Z,14.30
2023-03-21T08:33:31.261Z,14.32
2023-03-21T08:34:33.101Z,14.34
2023-03-21T08:35:34.844Z,14.38
2023-03-21T08:36:36.612Z,14.39
2023-03-21T08:37:38.421Z,14.43
2023-03-21T08:38:40.239Z,14.45
2023-03-21T08:39:42.130Z,14.47
2023-03-21T08:40:43.896Z,14.47
2023-03-21T08:41:45.692Z,14.49
2023-03-21T08:42:47.614Z,14.51
2023-03-21T08:43:49.467Z,14.54
2023-03-21T08:44:51.363Z,14.54
2023-03-21T08:45:53.211Z,14.57
2023-03-21T08:46:54.984Z,14.57
2023-03-21T08:47:57.027Z,14.58
2023-03-21T08:48:59.035Z,14.58
2023-03-21T08:50:00.895Z,14.60
2023-03-21T08:51:02.714Z,14.61
2023-03-21T08:52:04.508Z,14.62
2023-03-21T08:53:06.319Z,14.62
2023-03-21T08:54:08.138Z,14.62
2023-03-21T08:55:10.055Z,14.64
2023-03-21T08:56:12.008Z,14.63
2023-03-21T08:57:13.877Z,14.63
2023-03-21T08:58:15.685Z,14.62
2023-03-21T08:59:17.819Z,14.63
2023-03-21T09:00:19.664Z,14.65
2023-03-21T09:01:21.513Z,14.66
2023-03-21T09:02:23.285Z,14.61
2023-03-21T09:03:25.329Z,14.66
2023-03-21T09:04:27.216Z,14.66
2023-03-21T09:05:29.179Z,14.65
2023-03-21T09:06:31.086Z,14.66
2023-03-21T09:07:32.910Z,14.66
2023-03-21T09:08:34.749Z,14.67
2023-03-21T09:09:36.640Z,14.66
2023-03-21T09:10:38.557Z,14.67
2023-03-21T09:11:40.349Z,14.66
2023-03-21T09:12:42.173Z,14.68
2023-03-21T09:13:43.980Z,14.68
2023-03-21T09:14:45.915Z,14.68
2023-03-21T09:15:47.862Z,14.67
2023-03-21T09:16:49.672Z,14.67
2023-03-21T09:17:51.499Z,14.65
2023-03-21T09:18:53.328Z,14.66
2023-03-21T09:19:55.189Z,14.64
2023-03-21T09:20:57.059Z,14.65
2023-03-21T09:21:58.909Z,14.65
2023-03-21T09:23:00.730Z,14.66
2023-03-21T09:24:02.546Z,14.67
2023-03-21T09:25:04.348Z,14.69
2023-03-21T09:26:06.713Z,14.72
2023-03-21T09:27:08.500Z,14.74
2023-03-21T09:28:10.336Z,14.76
2023-03-21T09:29:12.194Z,14.78
2023-03-21T09:30:14.211Z,14.79
2023-03-21T09:31:16.325Z,14.81
2023-03-21T09:32:18.127Z,14.81
2023-03-21T09:33:19.967Z,14.83
2023-03-21T09:34:21.792Z,14.85
2023-03-21T09:35:23.593Z,14.86
2023-03-21T09:36:25.470Z,14.87
2023-03-21T09:37:27.141Z,14.89
2023-03-21T09:38:28.955Z,14.91
2023-03-21T09:39:30.813Z,14.94
2023-03-21T09:40:32.626Z,14.96
2023-03-21T09:41:34.402Z,14.98
2023-03-21T09:42:36.214Z,15.02
2023-03-21T09:43:38.042Z,15.03
2023-03-21T09:44:39.849Z,15.06
2023-03-21T09:45:41.666Z,15.08
2023-03-21T09:46:43.689Z,15.09
2023-03-21T09:47:45.639Z,15.11
2023-03-21T09:48:56.832Z,15.13
2023-03-21T09:49:51.797Z,15.16
2023-03-21T09:50:53.673Z,15.18
2023-03-21T09:51:55.513Z,15.18
2023-03-21T09:52:57.347Z,15.22
2023-03-21T09:53:59.140Z,15.23
2023-03-21T09:55:00.970Z,15.23
2023-03-21T09:56:02.807Z,15.24
2023-03-21T09:57:04.647Z,15.27
2023-03-21T09:58:06.472Z,15.27
2023-03-21T09:59:08.298Z,15.28
2023-03-21T10:00:10.424Z,15.29
2023-03-21T10:01:12.271Z,15.31
2023-03-21T10:02:14.181Z,15.31
2023-03-21T10:03:15.995Z,15.32
2023-03-21T10:04:17.984Z,15.34
2023-03-21T10:05:19.772Z,15.35
2023-03-21T10:06:21.615Z,15.35
2023-03-21T10:07:23.464Z,15.38
2023-03-21T10:08:25.271Z,15.39
2023-03-21T10:09:27.081Z,15.39
2023-03-21T10:10:28.915Z,15.39
2023-03-21T10:11:30.713Z,15.39
2023-03-21T10:12:32.570Z,15.39
2023-03-21T10:13:34.402Z,15.40
2023-03-21T10:14:36.359Z,15.39
2023-03-21T10:15:38.583Z,15.40
2023-03-21T10:16:40.616Z,15.40
2023-03-21T10:17:42.421Z,15.42
2023-03-21T10:18:44.266Z,15.40
2023-03-21T10:19:46.089Z,15.42
2023-03-21T10:20:47.906Z,15.43
2023-03-21T10:22:01.292Z,15.42
2023-03-21T10:22:53.395Z,15.43
2023-03-21T10:23:55.216Z,15.44
2023-03-21T10:24:57.026Z,15.45
2023-03-21T10:25:58.796Z,15.47
2023-03-21T10:27:00.688Z,15.47
2023-03-21T10:28:02.560Z,15.47
2023-03-21T10:29:04.417Z,15.46
2023-03-21T10:30:06.384Z,15.46
2023-03-21T10:31:08.181Z,15.46
2023-03-21T10:32:10.037Z,15.46
2023-03-21T10:33:12.038Z,15.44
2023-03-21T10:34:13.856Z,15.44
2023-03-21T10:35:15.683Z,15.45
2023-03-21T10:36:17.568Z,15.43
2023-03-21T10:37:19.436Z,15.44
2023-03-21T10:38:21.297Z,15.43
2023-03-21T10:39:22.982Z,15.41
2023-03-21T10:40:24.781Z,15.43
2023-03-21T10:41:26.586Z,15.41
2023-03-21T10:42:28.405Z,15.41
2023-03-21T10:43:30.214Z,15.40
2023-03-21T10:44:32.010Z,15.40
2023-03-21T10:45:33.874Z,15.40
2023-03-21T10:46:36.296Z,15.39
2023-03-21T10:47:38.686Z,15.39
2023-03-21T10:48:40.729Z,15.39
2023-03-21T10:50:06.475Z,15.39
2023-03-21T10:50:46.243Z,15.39
2023-03-21T10:51:47.989Z,15.38
2023-03-21T10:52:49.784Z,15.38
2023-03-21T10:53:51.587Z,15.37
2023-03-21T10:54:53.384Z,15.36
2023-03-21T10:55:55.173Z,15.36
2023-03-21T10:56:56.974Z,15.36
2023-03-21T10:57:58.756Z,15.36
2023-03-21T10:59:00.561Z,15.37
2023-03-21T11:00:02.376Z,15.35
2023-03-21T11:01:04.150Z,15.37
2023-03-21T11:02:06.223Z,15.37
2023-03-21T11:03:08.041Z,15.37
2023-03-21T11:04:09.884Z,15.38
2023-03-21T11:05:11.680Z,15.37
2023-03-21T11:06:14.384Z,15.37
2023-03-21T11:07:16.168Z,15.36
2023-03-21T11:08:17.949Z,15.37
2023-03-21T11:09:19.765Z,15.37
2023-03-21T11:10:28.569Z,15.35
2023-03-21T11:11:25.271Z,15.36
2023-03-21T11:12:27.049Z,15.36
2023-03-21T11:13:28.840Z,15.36
2023-03-21T11:14:30.649Z,15.37
2023-03-21T11:15:32.452Z,15.36
2023-03-21T11:16:34.278Z,15.34
2023-03-21T11:17:36.018Z,15.35
2023-03-21T11:18:37.811Z,15.34
2023-03-21T11:19:40.373Z,15.34
2023-03-21T11:20:42.265Z,15.34
2023-03-21T11:21:44.062Z,15.34
2023-03-21T11:22:45.846Z,15.34
2023-03-21T11:23:47.625Z,15.34
2023-03-21T11:24:49.446Z,15.33
2023-03-21T11:25:51.227Z,15.34
2023-03-21T11:26:53.023Z,15.35
2023-03-21T11:27:54.850Z,15.36
2023-03-21T11:28:56.595Z,15.35
2023-03-21T11:29:58.405Z,15.35
2023-03-21T11:31:00.232Z,15.36
2023-03-21T11:32:02.007Z,15.36
2023-03-21T11:33:03.832Z,15.37
2023-03-21T11:34:05.586Z,15.38
2023-03-21T11:35:07.457Z,15.39
2023-03-21T11:36:10.457Z,15.38
2023-03-21T11:37:12.279Z,15.38
2023-03-21T11:38:14.064Z,15.40
2023-03-21T11:39:15.971Z,15.40
2023-03-21T11:40:17.809Z,15.40
2023-03-21T11:41:19.596Z,15.39
2023-03-21T11:42:21.391Z,15.38
2023-03-21T11:43:23.176Z,15.38
2023-03-21T11:44:25.297Z,15.39
2023-03-21T11:45:27.115Z,15.39
2023-03-21T11:46:29.068Z,15.40
2023-03-21T11:47:31.112Z,15.40
2023-03-21T11:48:32.905Z,15.41
2023-03-21T11:49:34.693Z,15.41
2023-03-21T11:50:36.616Z,15.44
2023-03-21T11:51:38.414Z,15.44
2023-03-21T11:52:40.202Z,15.47
2023-03-21T11:53:41.976Z,15.47
2023-03-21T11:54:43.773Z,15.49
2023-03-21T11:55:45.581Z,15.50
2023-03-21T11:56:47.431Z,15.51
2023-03-21T11:57:49.225Z,15.52
2023-03-21T11:58:51.063Z,15.53
2023-03-21T11:59:52.802Z,15.52
2023-03-21T12:00:54.625Z,15.53
2023-03-21T12:01:56.407Z,15.54
2023-03-21T12:02:58.288Z,15.56
2023-03-21T12:04:00.079Z,15.57
2023-03-21T12:05:01.897Z,15.58
2023-03-21T12:06:03.916Z,15.58
2023-03-21T12:07:05.691Z,15.58
2023-03-21T12:08:07.469Z,15.59
2023-03-21T12:09:09.266Z,15.60
2023-03-21T12:10:11.261Z,15.62
2023-03-21T12:11:13.067Z,15.62
2023-03-21T12:12:14.850Z,15.62
2023-03-21T12:13:16.650Z,15.61
2023-03-21T12:14:18.427Z,15.62
2023-03-21T12:15:20.224Z,15.61
2023-03-21T12:16:22.054Z,15.62
2023-03-21T12:17:23.820Z,15.64
2023-03-21T12:18:25.616Z,15.64
2023-03-21T12:19:27.415Z,15.64
2023-03-21T12:20:29.214Z,15.65
2023-03-21T12:21:31.021Z,15.65
2023-03-21T12:22:32.824Z,15.66
2023-03-21T12:23:34.711Z,15.67
2023-03-21T12:24:36.501Z,15.67
2023-03-21T12:25:38.691Z,15.67
2023-03-21T12:26:40.970Z,15.68
2023-03-21T12:27:42.755Z,15.68
2023-03-21T12:28:44.530Z,15.69
2023-03-21T12:29:46.339Z,15.69
2023-03-21T12:30:48.124Z,15.68
2023-03-21T12:31:49.900Z,15.69
2023-03-21T12:32:51.648Z,15.70
2023-03-21T12:33:53.421Z,15.72
2023-03-21T12:34:55.216Z,15.72
2023-03-21T12:35:57.015Z,15.72
2023-03-21T12:36:58.829Z,15.74
2023-03-21T12:38:00.672Z,15.75
2023-03-21T12:39:02.438Z,15.75
2023-03-21T12:40:04.223Z,15.75
2023-03-21T12:41:06.069Z,15.76
2023-03-21T12:42:07.898Z,15.77
2023-03-21T12:43:09.677Z,15.78
2023-03-21T12:44:11.470Z,15.80
2023-03-21T12:45:15.746Z,15.79
2023-03-21T12:46:16.881Z,15.80
2023-03-21T12:47:18.890Z,15.79
2023-03-21T12:48:20.850Z,15.80
2023-03-21T12:49:22.655Z,15.80
2023-03-21T12:50:24.480Z,15.80
2023-03-21T12:51:26.287Z,15.81
2023-03-21T12:52:28.144Z,15.82
2023-03-21T12:53:29.951Z,15.84
2023-03-21T12:54:31.761Z,15.85
2023-03-21T12:55:33.583Z,15.87
2023-03-21T12:56:35.383Z,15.86
2023-03-21T12:57:40.213Z,15.87
2023-03-21T12:58:42.985Z,15.87
2023-03-21T12:59:44.444Z,15.88
2023-03-21T13:00:46.228Z,15.87
2023-03-21T13:01:48.081Z,15.88
2023-03-21T13:02:49.950Z,15.89
2023-03-21T13:03:51.802Z,15.89
2023-03-21T13:04:53.635Z,15.89
2023-03-21T13:05:55.674Z,15.91
2023-03-21T13:06:57.827Z,15.91
2023-03-21T13:07:59.661Z,15.92
2023-03-21T13:09:01.492Z,15.93
2023-03-21T13:10:04.303Z,15.94
2023-03-21T13:11:06.126Z,15.95
2023-03-21T13:12:08.019Z,15.97
2023-03-21T13:13:09.849Z,15.97
2023-03-21T13:14:11.673Z,15.97
2023-03-21T13:15:21.836Z,15.98
2023-03-21T13:16:17.128Z,15.98
2023-03-21T13:17:18.956Z,16.00
2023-03-21T13:18:20.793Z,16.00
2023-03-21T13:19:22.589Z,16.00
2023-03-21T13:20:24.466Z,16.01
2023-03-21T13:21:26.277Z,16.00
2023-03-21T13:22:28.088Z,16.02
2023-03-21T13:23:29.943Z,16.01
2023-03-21T13:24:31.744Z,16.03
2023-03-21T13:25:33.533Z,16.04
2023-03-21T13:26:35.581Z,16.04
2023-03-21T13:27:37.419Z,16.04
2023-03-21T13:28:39.237Z,16.04
2023-03-21T13:29:41.062Z,16.03
2023-03-21T13:30:42.869Z,16.02
2023-03-21T13:31:51.740Z,16.02
2023-03-21T13:32:48.283Z,16.02
2023-03-21T13:33:50.088Z,16.02
2023-03-21T13:34:51.879Z,16.01
2023-03-21T13:35:53.702Z,16.01
2023-03-21T13:36:55.513Z,16.02
2023-03-21T13:37:57.322Z,16.02
2023-03-21T13:38:59.678Z,16.02
2023-03-21T13:40:02.297Z,16.02
2023-03-21T13:41:04.100Z,16.03
2023-03-21T13:42:05.908Z,16.02
2023-03-21T13:43:10.163Z,16.01
2023-03-21T13:44:11.357Z,16.01
2023-03-21T13:45:13.155Z,16.02
2023-03-21T13:46:15.183Z,16.02
2023-03-21T13:47:16.948Z,16.03
2023-03-21T13:48:18.795Z,16.04
2023-03-21T13:49:20.599Z,16.02
2023-03-21T13:50:22.408Z,16.04
2023-03-21T13:51:24.204Z,16.04
2023-03-21T13:52:26.000Z,16.04
2023-03-21T13:53:28.001Z,16.04
2023-03-21T13:54:29.872Z,16.02
2023-03-21T13:55:31.689Z,16.03
2023-03-21T13:56:33.488Z,16.02
2023-03-21T13:57:35.293Z,16.01
2023-03-21T13:58:37.141Z,16.01
2023-03-21T13:59:38.940Z,16.02
2023-03-21T14:00:40.750Z,16.01
2023-03-21T14:01:42.701Z,16.02
2023-03-21T14:02:44.646Z,16.02
2023-03-21T14:03:46.459Z,16.03
2023-03-21T14:05:04.003Z,16.04
2023-03-21T14:05:51.998Z,16.05
2023-03-21T14:06:53.890Z,16.05
2023-03-21T14:07:59.365Z,16.05
2023-03-21T14:08:59.357Z,16.06
2023-03-21T14:10:01.200Z,16.07
2023-03-21T14:11:03.015Z,16.08
2023-03-21T14:12:07.860Z,16.08
2023-03-21T14:13:08.422Z,16.09
2023-03-21T14:14:10.448Z,16.09
2023-03-21T14:15:16.859Z,16.10
2023-03-21T14:16:15.971Z,16.09
2023-03-21T14:17:17.684Z,16.08
2023-03-21T14:18:28.134Z,16.08
2023-03-21T14:19:23.186Z,16.09
2023-03-21T14:20:25.021Z,16.09
2023-03-21T14:21:26.828Z,16.10
2023-03-21T14:22:28.616Z,16.10
2023-03-21T14:23:30.440Z,16.09
2023-03-21T14:24:32.255Z,16.09
2023-03-21T14:25:40.937Z,16.08
2023-03-21T14:26:37.737Z,16.08
2023-03-21T14:27:39.504Z,16.07
2023-03-21T14:28:41.297Z,16.08
2023-03-21T14:29:43.093Z,16.07
2023-03-21T14:30:44.942Z,16.07
2023-03-21T14:31:46.713Z,16.08
2023-03-21T14:32:48.500Z,16.07
2023-03-21T14:33:50.314Z,16.07
2023-03-21T14:34:52.324Z,16.07
2023-03-21T14:35:54.221Z,16.07
2023-03-21T14:36:58.608Z,16.07
2023-03-21T14:37:59.682Z,16.06
2023-03-21T14:39:01.505Z,16.05
2023-03-21T14:40:03.322Z,16.04
2023-03-21T14:41:05.334Z,16.03
2023-03-21T14:42:07.120Z,16.03
2023-03-21T14:43:08.913Z,16.02
2023-03-21T14:44:10.736Z,16.00
2023-03-21T14:45:12.562Z,16.00
2023-03-21T14:46:14.451Z,15.99
2023-03-21T14:47:16.237Z,15.99
2023-03-21T14:48:18.045Z,15.98
2023-03-21T14:49:19.836Z,15.99
2023-03-21T14:50:21.748Z,15.97
2023-03-21T14:51:23.609Z,15.97
2023-03-21T14:52:25.407Z,15.96
2023-03-21T14:53:27.220Z,15.94
2023-03-21T14:54:29.035Z,15.94
2023-03-21T14:55:30.870Z,15.95
2023-03-21T14:56:32.673Z,15.94
2023-03-21T14:57:34.478Z,15.93
2023-03-21T14:58:36.274Z,15.93
2023-03-21T14:59:38.086Z,15.91
2023-03-21T15:00:40.160Z,15.90
2023-03-21T15:01:42.039Z,15.89
2023-03-21T15:02:43.807Z,15.88
2023-03-21T15:03:45.719Z,15.86
2023-03-21T15:04:47.516Z,15.86
2023-03-21T15:05:49.286Z,15.86
2023-03-21T15:06:51.121Z,15.86
2023-03-21T15:07:52.918Z,15.86
2023-03-21T15:08:54.698Z,15.83
2023-03-21T15:09:56.503Z,15.83
2023-03-21T15:11:06.849Z,15.83
2023-03-21T15:12:01.918Z,15.82
2023-03-21T15:13:03.706Z,15.81
2023-03-21T15:14:05.525Z,15.79
2023-03-21T15:15:07.328Z,15.76
2023-03-21T15:16:09.169Z,15.76
2023-03-21T15:17:11.048Z,15.75
2023-03-21T15:18:12.868Z,15.74
2023-03-21T15:19:14.660Z,15.74
2023-03-21T15:20:16.742Z,15.74
2023-03-21T15:21:18.556Z,15.74
2023-03-21T15:22:20.382Z,15.73
2023-03-21T15:23:22.164Z,15.73
2023-03-21T15:24:23.952Z,15.72
2023-03-21T15:25:25.850Z,15.72
2023-03-21T15:26:27.669Z,15.70
2023-03-21T15:27:29.506Z,15.69
2023-03-21T15:28:31.307Z,15.68
2023-03-21T15:29:33.091Z,15.68
2023-03-21T15:30:34.926Z,15.66
2023-03-21T15:31:36.693Z,15.64
2023-03-21T15:32:38.410Z,15.64
2023-03-21T15:33:40.272Z,15.62
2023-03-21T15:34:42.049Z,15.62
2023-03-21T15:35:44.211Z,15.60
2023-03-21T15:36:46.152Z,15.59
2023-03-21T15:37:47.974Z,15.59
2023-03-21T15:38:49.781Z,15.56
2023-03-21T15:39:51.595Z,15.56
2023-03-21T15:40:53.373Z,15.55
2023-03-21T15:41:55.172Z,15.53
2023-03-21T15:42:57.005Z,15.53
2023-03-21T15:43:58.692Z,15.51
2023-03-21T15:45:00.502Z,15.50
2023-03-21T15:46:02.290Z,15.49
2023-03-21T15:47:04.203Z,15.45
2023-03-21T15:48:06.209Z,15.43
2023-03-21T15:49:07.984Z,15.41
2023-03-21T15:50:10.058Z,15.40
2023-03-21T15:51:11.864Z,15.38
2023-03-21T15:52:13.641Z,15.36
2023-03-21T15:53:15.535Z,15.35
2023-03-21T15:54:17.264Z,15.31
2023-03-21T15:55:19.064Z,15.30
2023-03-21T15:56:20.952Z,15.28
2023-03-21T15:57:22.756Z,15.26
2023-03-21T15:58:24.564Z,15.25
2023-03-21T15:59:26.355Z,15.23
2023-03-21T16:00:28.284Z,15.21
2023-03-21T16:01:30.226Z,15.19
2023-03-21T16:02:31.967Z,15.18
2023-03-21T16:03:33.817Z,15.15
2023-03-21T16:04:35.582Z,15.14
2023-03-21T16:05:37.414Z,15.11
2023-03-21T16:06:39.231Z,15.08
2023-03-21T16:07:41.008Z,15.07
2023-03-21T16:08:42.827Z,15.04
2023-03-21T16:09:44.618Z,15.02
2023-03-21T16:10:46.509Z,15.00
2023-03-21T16:11:48.313Z,14.98
2023-03-21T16:12:50.091Z,14.96
2023-03-21T16:13:51.920Z,14.95
2023-03-21T16:14:53.699Z,14.93
2023-03-21T16:15:55.482Z,14.92
2023-03-21T16:16:57.267Z,14.89
2023-03-21T16:17:59.061Z,14.88
2023-03-21T16:19:00.871Z,14.86
2023-03-21T16:20:02.804Z,14.84
2023-03-21T16:21:04.668Z,14.83
2023-03-21T16:22:06.461Z,14.80
2023-03-21T16:23:08.239Z,14.78
2023-03-21T16:24:11.562Z,14.76
2023-03-21T16:25:13.499Z,14.75
2023-03-21T16:26:15.390Z,14.73
2023-03-21T16:27:17.177Z,14.70
2023-03-21T16:28:18.967Z,14.68
2023-03-21T16:29:20.794Z,14.66
2023-03-21T16:30:22.590Z,14.64
2023-03-21T16:31:24.552Z,14.61
2023-03-21T16:32:26.369Z,14.60
2023-03-21T16:33:28.180Z,14.57
2023-03-21T16:34:30.006Z,14.54
2023-03-21T16:35:31.827Z,14.53
2023-03-21T16:36:33.594Z,14.52